sensor_id;sensor_type;location;lat;lon;timestamp;P1;durP1;ratioP1;P2;durP2;ratioP2
38083;SDS011;23894;51.466;7.444;2023-07-02T00:00:01;6.43;;;2.95;;
38083;SDS011;23894;51.466;7.444;2023-07-02T00:02:05;5.32;;;2.70;;
38083;SDS011;23894;51.466;7.444;2023-07-02T00:06:09;5.45;;;2.85;;
38083;SDS011;23894;51.466;7.444;2023-07-02T00:08:12;5.68;;;2.78;;
38083;SDS011;23894;51.466;7.444;2023-07-02T00:10:14;5.70;;;2.83;;
38083;SDS011;23894;51.466;7.444;2023-07-02T00:12:18;8.45;;;2.90;;
38083;SDS011;23894;51.466;7.444;2023-07-02T00:14:19;7.63;;;3.20;;
38083;SDS011;23894;51.466;7.444;2023-07-02T00:18:22;6.68;;;3.25;;
38083;SDS011;23894;51.466;7.444;2023-07-02T00:20:35;6.03;;;3.05;;
38083;SDS011;23894;51.466;7.444;2023-07-02T00:22:39;8.02;;;3.47;;
38083;SDS011;23894;51.466;7.444;2023-07-02T00:24:46;7.70;;;3.05;;
38083;SDS011;23894;51.466;7.444;2023-07-02T00:26:47;7.65;;;2.83;;
38083;SDS011;23894;51.466;7.444;2023-07-02T00:28:51;5.65;;;2.55;;
38083;SDS011;23894;51.466;7.444;2023-07-02T00:30:52;4.85;;;2.55;;
38083;SDS011;23894;51.466;7.444;2023-07-02T00:32:55;6.82;;;3.00;;
38083;SDS011;23894;51.466;7.444;2023-07-02T00:34:57;6.65;;;3.08;;
38083;SDS011;23894;51.466;7.444;2023-07-02T00:36:59;6.65;;;2.78;;
38083;SDS011;23894;51.466;7.444;2023-07-02T00:41:01;6.45;;;2.53;;
38083;SDS011;23894;51.466;7.444;2023-07-02T00:43:04;5.93;;;2.90;;
38083;SDS011;23894;51.466;7.444;2023-07-02T00:45:08;5.75;;;2.70;;
38083;SDS011;23894;51.466;7.444;2023-07-02T00:47:10;6.25;;;2.95;;
38083;SDS011;23894;51.466;7.444;2023-07-02T00:49:13;8.23;;;3.38;;
38083;SDS011;23894;51.466;7.444;2023-07-02T00:51:19;6.18;;;2.95;;
38083;SDS011;23894;51.466;7.444;2023-07-02T00:53:23;8.63;;;3.33;;
38083;SDS011;23894;51.466;7.444;2023-07-02T00:55:25;7.85;;;3.40;;
38083;SDS011;23894;51.466;7.444;2023-07-02T00:57:29;5.95;;;2.85;;
38083;SDS011;23894;51.466;7.444;2023-07-02T00:59:32;6.10;;;2.80;;
38083;SDS011;23894;51.466;7.444;2023-07-02T01:01:38;6.85;;;3.45;;
38083;SDS011;23894;51.466;7.444;2023-07-02T01:03:58;6.45;;;3.40;;
38083;SDS011;23894;51.466;7.444;2023-07-02T01:06:02;7.20;;;3.35;;
38083;SDS011;23894;51.466;7.444;2023-07-02T01:08:08;7.53;;;3.25;;
38083;SDS011;23894;51.466;7.444;2023-07-02T01:10:10;10.77;;;4.00;;
38083;SDS011;23894;51.466;7.444;2023-07-02T01:12:12;6.40;;;3.50;;
38083;SDS011;23894;51.466;7.444;2023-07-02T01:14:25;7.15;;;3.22;;
38083;SDS011;23894;51.466;7.444;2023-07-02T01:16:40;9.75;;;3.50;;
38083;SDS011;23894;51.466;7.444;2023-07-02T01:18:44;9.30;;;3.22;;
38083;SDS011;23894;51.466;7.444;2023-07-02T01:20:46;7.90;;;3.08;;
38083;SDS011;23894;51.466;7.444;2023-07-02T01:22:49;9.25;;;3.65;;
38083;SDS011;23894;51.466;7.444;2023-07-02T01:24:53;7.82;;;3.50;;
38083;SDS011;23894;51.466;7.444;2023-07-02T01:26:56;6.80;;;3.20;;
38083;SDS011;23894;51.466;7.444;2023-07-02T01:29:17;7.57;;;3.70;;
38083;SDS011;23894;51.466;7.444;2023-07-02T01:31:20;7.25;;;3.60;;
38083;SDS011;23894;51.466;7.444;2023-07-02T01:33:26;7.72;;;3.90;;
38083;SDS011;23894;51.466;7.444;2023-07-02T01:35:27;7.63;;;3.78;;
38083;SDS011;23894;51.466;7.444;2023-07-02T01:37:29;8.60;;;3.65;;
38083;SDS011;23894;51.466;7.444;2023-07-02T01:39:38;9.50;;;3.70;;
38083;SDS011;23894;51.466;7.444;2023-07-02T01:41:54;8.82;;;4.10;;
38083;SDS011;23894;51.466;7.444;2023-07-02T01:43:55;12.07;;;4.47;;
38083;SDS011;23894;51.466;7.444;2023-07-02T01:45:57;10.23;;;4.63;;
38083;SDS011;23894;51.466;7.444;2023-07-02T01:47:59;10.88;;;4.47;;
38083;SDS011;23894;51.466;7.444;2023-07-02T01:50:03;10.27;;;4.47;;
38083;SDS011;23894;51.466;7.444;2023-07-02T01:52:06;11.52;;;4.35;;
38083;SDS011;23894;51.466;7.444;2023-07-02T01:54:09;8.00;;;3.80;;
38083;SDS011;23894;51.466;7.444;2023-07-02T01:56:11;9.00;;;4.07;;
38083;SDS011;23894;51.466;7.444;2023-07-02T01:58:14;8.63;;;3.78;;
38083;SDS011;23894;51.466;7.444;2023-07-02T02:00:16;8.65;;;4.20;;
38083;SDS011;23894;51.466;7.444;2023-07-02T02:02:19;8.65;;;3.88;;
38083;SDS011;23894;51.466;7.444;2023-07-02T02:04:21;8.10;;;4.38;;
38083;SDS011;23894;51.466;7.444;2023-07-02T02:06:22;10.68;;;4.05;;
38083;SDS011;23894;51.466;7.444;2023-07-02T02:08:25;14.15;;;4.30;;
38083;SDS011;23894;51.466;7.444;2023-07-02T02:10:28;10.57;;;4.63;;
38083;SDS011;23894;51.466;7.444;2023-07-02T02:12:31;9.48;;;4.45;;
38083;SDS011;23894;51.466;7.444;2023-07-02T02:14:32;8.57;;;4.63;;
38083;SDS011;23894;51.466;7.444;2023-07-02T02:18:35;9.88;;;4.32;;
38083;SDS011;23894;51.466;7.444;2023-07-02T02:20:36;10.57;;;4.40;;
38083;SDS011;23894;51.466;7.444;2023-07-02T02:22:38;10.98;;;4.35;;
38083;SDS011;23894;51.466;7.444;2023-07-02T02:24:42;10.00;;;4.55;;
38083;SDS011;23894;51.466;7.444;2023-07-02T02:26:55;10.00;;;4.30;;
38083;SDS011;23894;51.466;7.444;2023-07-02T02:28:57;10.75;;;4.82;;
38083;SDS011;23894;51.466;7.444;2023-07-02T02:30:58;9.25;;;4.80;;
38083;SDS011;23894;51.466;7.444;2023-07-02T02:35:02;11.25;;;5.07;;
38083;SDS011;23894;51.466;7.444;2023-07-02T02:37:03;12.60;;;5.60;;
38083;SDS011;23894;51.466;7.444;2023-07-02T02:39:07;10.32;;;5.38;;
38083;SDS011;23894;51.466;7.444;2023-07-02T02:41:09;10.85;;;5.55;;
38083;SDS011;23894;51.466;7.444;2023-07-02T02:43:12;11.73;;;5.45;;
38083;SDS011;23894;51.466;7.444;2023-07-02T02:45:18;13.73;;;5.47;;
38083;SDS011;23894;51.466;7.444;2023-07-02T02:47:20;11.73;;;6.15;;
38083;SDS011;23894;51.466;7.444;2023-07-02T02:51:23;11.00;;;5.68;;
38083;SDS011;23894;51.466;7.444;2023-07-02T02:53:24;13.25;;;6.55;;
38083;SDS011;23894;51.466;7.444;2023-07-02T02:55:26;14.70;;;6.75;;
38083;SDS011;23894;51.466;7.444;2023-07-02T02:57:28;13.13;;;6.65;;
38083;SDS011;23894;51.466;7.444;2023-07-02T02:59:30;13.88;;;6.78;;
38083;SDS011;23894;51.466;7.444;2023-07-02T03:01:33;21.10;;;6.93;;
38083;SDS011;23894;51.466;7.444;2023-07-02T03:03:39;12.65;;;7.15;;
38083;SDS011;23894;51.466;7.444;2023-07-02T03:05:46;15.50;;;6.90;;
38083;SDS011;23894;51.466;7.444;2023-07-02T03:07:50;12.02;;;6.63;;
38083;SDS011;23894;51.466;7.444;2023-07-02T03:09:52;12.73;;;6.45;;
38083;SDS011;23894;51.466;7.444;2023-07-02T03:11:53;13.90;;;7.25;;
38083;SDS011;23894;51.466;7.444;2023-07-02T03:13:55;14.70;;;7.68;;
38083;SDS011;23894;51.466;7.444;2023-07-02T03:15:58;14.25;;;7.60;;
38083;SDS011;23894;51.466;7.444;2023-07-02T03:18:00;15.65;;;7.07;;
38083;SDS011;23894;51.466;7.444;2023-07-02T03:20:05;13.25;;;7.45;;
38083;SDS011;23894;51.466;7.444;2023-07-02T03:22:10;15.52;;;8.30;;
38083;SDS011;23894;51.466;7.444;2023-07-02T03:24:12;16.20;;;8.10;;
38083;SDS011;23894;51.466;7.444;2023-07-02T03:26:13;13.38;;;7.43;;
38083;SDS011;23894;51.466;7.444;2023-07-02T03:30:18;16.45;;;7.15;;
38083;SDS011;23894;51.466;7.444;2023-07-02T03:32:20;17.05;;;7.97;;
38083;SDS011;23894;51.466;7.444;2023-07-02T03:34:22;21.27;;;9.15;;
38083;SDS011;23894;51.466;7.444;2023-07-02T03:36:24;14.70;;;8.25;;
38083;SDS011;23894;51.466;7.444;2023-07-02T03:38:26;18.17;;;9.35;;
38083;SDS011;23894;51.466;7.444;2023-07-02T03:42:30;19.77;;;9.50;;
38083;SDS011;23894;51.466;7.444;2023-07-02T03:46:32;16.50;;;9.55;;
38083;SDS011;23894;51.466;7.444;2023-07-02T03:50:34;18.10;;;8.35;;
38083;SDS011;23894;51.466;7.444;2023-07-02T03:52:36;18.65;;;9.70;;
38083;SDS011;23894;51.466;7.444;2023-07-02T03:54:39;22.55;;;10.75;;
38083;SDS011;23894;51.466;7.444;2023-07-02T03:56:43;18.73;;;10.45;;
38083;SDS011;23894;51.466;7.444;2023-07-02T03:58:46;21.85;;;11.43;;
38083;SDS011;23894;51.466;7.444;2023-07-02T04:00:48;20.05;;;10.20;;
38083;SDS011;23894;51.466;7.444;2023-07-02T04:02:50;20.52;;;10.13;;
38083;SDS011;23894;51.466;7.444;2023-07-02T04:04:53;22.05;;;10.52;;
38083;SDS011;23894;51.466;7.444;2023-07-02T04:06:55;21.52;;;11.68;;
38083;SDS011;23894;51.466;7.444;2023-07-02T04:10:57;19.10;;;10.65;;
38083;SDS011;23894;51.466;7.444;2023-07-02T04:12:59;19.50;;;10.90;;
38083;SDS011;23894;51.466;7.444;2023-07-02T04:15:02;18.52;;;11.25;;
38083;SDS011;23894;51.466;7.444;2023-07-02T04:17:03;27.35;;;11.77;;
38083;SDS011;23894;51.466;7.444;2023-07-02T04:19:06;24.75;;;10.95;;
38083;SDS011;23894;51.466;7.444;2023-07-02T04:21:08;19.13;;;11.10;;
38083;SDS011;23894;51.466;7.444;2023-07-02T04:25:13;18.90;;;10.20;;
38083;SDS011;23894;51.466;7.444;2023-07-02T04:27:16;22.58;;;11.63;;
38083;SDS011;23894;51.466;7.444;2023-07-02T04:29:17;21.20;;;11.60;;
38083;SDS011;23894;51.466;7.444;2023-07-02T04:33:22;19.23;;;11.48;;
38083;SDS011;23894;51.466;7.444;2023-07-02T04:35:23;20.27;;;10.93;;
38083;SDS011;23894;51.466;7.444;2023-07-02T04:37:25;23.65;;;12.57;;
38083;SDS011;23894;51.466;7.444;2023-07-02T04:39:28;20.00;;;12.18;;
38083;SDS011;23894;51.466;7.444;2023-07-02T04:41:31;23.08;;;12.05;;
38083;SDS011;23894;51.466;7.444;2023-07-02T04:43:33;21.25;;;12.63;;
38083;SDS011;23894;51.466;7.444;2023-07-02T04:45:35;20.48;;;11.60;;
38083;SDS011;23894;51.466;7.444;2023-07-02T04:47:48;20.77;;;11.57;;
38083;SDS011;23894;51.466;7.444;2023-07-02T04:49:51;25.55;;;12.43;;
38083;SDS011;23894;51.466;7.444;2023-07-02T04:51:54;22.02;;;13.13;;
38083;SDS011;23894;51.466;7.444;2023-07-02T04:53:56;22.33;;;12.52;;
38083;SDS011;23894;51.466;7.444;2023-07-02T04:55:58;21.33;;;11.60;;
38083;SDS011;23894;51.466;7.444;2023-07-02T04:58:02;23.83;;;12.20;;
38083;SDS011;23894;51.466;7.444;2023-07-02T05:00:04;21.52;;;12.95;;
38083;SDS011;23894;51.466;7.444;2023-07-02T05:02:07;22.13;;;12.80;;
38083;SDS011;23894;51.466;7.444;2023-07-02T05:04:11;26.13;;;13.80;;
38083;SDS011;23894;51.466;7.444;2023-07-02T05:06:14;19.48;;;11.68;;
38083;SDS011;23894;51.466;7.444;2023-07-02T05:08:16;24.98;;;12.45;;
38083;SDS011;23894;51.466;7.444;2023-07-02T05:12:20;22.58;;;12.75;;
38083;SDS011;23894;51.466;7.444;2023-07-02T05:14:21;22.77;;;14.02;;
38083;SDS011;23894;51.466;7.444;2023-07-02T05:16:23;24.70;;;12.85;;
38083;SDS011;23894;51.466;7.444;2023-07-02T05:18:25;25.77;;;12.88;;
38083;SDS011;23894;51.466;7.444;2023-07-02T05:20:27;22.75;;;13.95;;
38083;SDS011;23894;51.466;7.444;2023-07-02T05:22:30;23.77;;;12.73;;
38083;SDS011;23894;51.466;7.444;2023-07-02T05:26:33;23.17;;;13.13;;
38083;SDS011;23894;51.466;7.444;2023-07-02T05:28:35;23.70;;;13.80;;
38083;SDS011;23894;51.466;7.444;2023-07-02T05:32:38;23.20;;;12.52;;
38083;SDS011;23894;51.466;7.444;2023-07-02T05:34:40;25.55;;;14.00;;
38083;SDS011;23894;51.466;7.444;2023-07-02T05:36:43;24.05;;;12.90;;
38083;SDS011;23894;51.466;7.444;2023-07-02T05:38:45;26.42;;;13.90;;
38083;SDS011;23894;51.466;7.444;2023-07-02T05:40:47;22.60;;;13.55;;
38083;SDS011;23894;51.466;7.444;2023-07-02T05:42:50;25.80;;;13.73;;
38083;SDS011;23894;51.466;7.444;2023-07-02T05:44:53;23.70;;;14.15;;
38083;SDS011;23894;51.466;7.444;2023-07-02T05:46:54;22.67;;;13.55;;
38083;SDS011;23894;51.466;7.444;2023-07-02T05:48:57;26.35;;;14.98;;
38083;SDS011;23894;51.466;7.444;2023-07-02T05:51:02;29.38;;;15.23;;
38083;SDS011;23894;51.466;7.444;2023-07-02T05:53:05;24.25;;;13.25;;
38083;SDS011;23894;51.466;7.444;2023-07-02T05:55:12;27.08;;;14.23;;
38083;SDS011;23894;51.466;7.444;2023-07-02T05:57:14;23.88;;;14.13;;
38083;SDS011;23894;51.466;7.444;2023-07-02T05:59:16;27.33;;;14.88;;
38083;SDS011;23894;51.466;7.444;2023-07-02T06:01:19;27.08;;;15.70;;
38083;SDS011;23894;51.466;7.444;2023-07-02T06:05:22;23.65;;;13.52;;
38083;SDS011;23894;51.466;7.444;2023-07-02T06:07:25;24.42;;;13.48;;
38083;SDS011;23894;51.466;7.444;2023-07-02T06:11:28;28.02;;;14.73;;
38083;SDS011;23894;51.466;7.444;2023-07-02T06:13:31;23.45;;;14.32;;
38083;SDS011;23894;51.466;7.444;2023-07-02T06:15:35;25.20;;;13.85;;
38083;SDS011;23894;51.466;7.444;2023-07-02T06:17:37;30.00;;;14.00;;
38083;SDS011;23894;51.466;7.444;2023-07-02T06:19:40;29.27;;;13.77;;
38083;SDS011;23894;51.466;7.444;2023-07-02T06:21:42;28.13;;;14.52;;
38083;SDS011;23894;51.466;7.444;2023-07-02T06:23:44;24.63;;;14.80;;
38083;SDS011;23894;51.466;7.444;2023-07-02T06:25:48;25.67;;;14.77;;
38083;SDS011;23894;51.466;7.444;2023-07-02T06:27:59;25.40;;;13.85;;
38083;SDS011;23894;51.466;7.444;2023-07-02T06:30:01;26.55;;;15.07;;
38083;SDS011;23894;51.466;7.444;2023-07-02T06:32:04;24.75;;;13.45;;
38083;SDS011;23894;51.466;7.444;2023-07-02T06:34:06;27.40;;;13.60;;
38083;SDS011;23894;51.466;7.444;2023-07-02T06:36:10;25.85;;;14.20;;
38083;SDS011;23894;51.466;7.444;2023-07-02T06:38:22;21.63;;;14.20;;
38083;SDS011;23894;51.466;7.444;2023-07-02T06:40:24;29.70;;;16.15;;
38083;SDS011;23894;51.466;7.444;2023-07-02T06:44:29;26.17;;;13.38;;
38083;SDS011;23894;51.466;7.444;2023-07-02T06:46:30;28.15;;;14.38;;
38083;SDS011;23894;51.466;7.444;2023-07-02T06:48:33;27.00;;;14.75;;
38083;SDS011;23894;51.466;7.444;2023-07-02T06:50:35;30.33;;;14.07;;
38083;SDS011;23894;51.466;7.444;2023-07-02T06:52:39;28.52;;;14.75;;
38083;SDS011;23894;51.466;7.444;2023-07-02T06:54:42;23.88;;;12.75;;
38083;SDS011;23894;51.466;7.444;2023-07-02T06:56:43;29.02;;;14.00;;
38083;SDS011;23894;51.466;7.444;2023-07-02T07:00:48;22.35;;;13.05;;
38083;SDS011;23894;51.466;7.444;2023-07-02T07:02:50;22.25;;;12.57;;
38083;SDS011;23894;51.466;7.444;2023-07-02T07:04:52;22.92;;;12.80;;
38083;SDS011;23894;51.466;7.444;2023-07-02T07:06:53;24.20;;;12.50;;
38083;SDS011;23894;51.466;7.444;2023-07-02T07:08:56;24.15;;;12.32;;
38083;SDS011;23894;51.466;7.444;2023-07-02T07:10:59;22.73;;;12.38;;
38083;SDS011;23894;51.466;7.444;2023-07-02T07:13:02;24.20;;;12.30;;
38083;SDS011;23894;51.466;7.444;2023-07-02T07:15:04;22.85;;;12.82;;
38083;SDS011;23894;51.466;7.444;2023-07-02T07:17:07;21.63;;;12.13;;
38083;SDS011;23894;51.466;7.444;2023-07-02T07:19:10;22.20;;;12.73;;
38083;SDS011;23894;51.466;7.444;2023-07-02T07:21:12;23.27;;;12.02;;
38083;SDS011;23894;51.466;7.444;2023-07-02T07:23:15;23.23;;;11.90;;
38083;SDS011;23894;51.466;7.444;2023-07-02T07:25:19;21.73;;;11.27;;
38083;SDS011;23894;51.466;7.444;2023-07-02T07:27:21;24.83;;;12.57;;
38083;SDS011;23894;51.466;7.444;2023-07-02T07:29:24;24.52;;;12.85;;
38083;SDS011;23894;51.466;7.444;2023-07-02T07:31:27;22.17;;;11.88;;
38083;SDS011;23894;51.466;7.444;2023-07-02T07:33:28;25.55;;;12.57;;
38083;SDS011;23894;51.466;7.444;2023-07-02T07:35:30;27.85;;;11.45;;
38083;SDS011;23894;51.466;7.444;2023-07-02T07:39:35;27.63;;;11.40;;
38083;SDS011;23894;51.466;7.444;2023-07-02T07:41:37;19.88;;;11.52;;
38083;SDS011;23894;51.466;7.444;2023-07-02T07:43:51;22.95;;;11.52;;
38083;SDS011;23894;51.466;7.444;2023-07-02T07:45:54;21.15;;;10.25;;
38083;SDS011;23894;51.466;7.444;2023-07-02T07:48:01;17.55;;;10.23;;
38083;SDS011;23894;51.466;7.444;2023-07-02T07:50:03;18.45;;;9.77;;
38083;SDS011;23894;51.466;7.444;2023-07-02T07:52:10;20.92;;;10.77;;
38083;SDS011;23894;51.466;7.444;2023-07-02T07:56:13;19.15;;;10.02;;
38083;SDS011;23894;51.466;7.444;2023-07-02T07:58:14;23.05;;;10.10;;
38083;SDS011;23894;51.466;7.444;2023-07-02T08:00:18;21.30;;;11.13;;
38083;SDS011;23894;51.466;7.444;2023-07-02T08:02:22;19.75;;;10.68;;
38083;SDS011;23894;51.466;7.444;2023-07-02T08:04:26;21.88;;;10.48;;
38083;SDS011;23894;51.466;7.444;2023-07-02T08:06:27;22.23;;;9.75;;
38083;SDS011;23894;51.466;7.444;2023-07-02T08:10:31;22.08;;;10.13;;
38083;SDS011;23894;51.466;7.444;2023-07-02T08:12:34;25.50;;;11.40;;
38083;SDS011;23894;51.466;7.444;2023-07-02T08:14:36;18.23;;;10.13;;
38083;SDS011;23894;51.466;7.444;2023-07-02T08:16:39;18.10;;;10.50;;
38083;SDS011;23894;51.466;7.444;2023-07-02T08:18:42;19.63;;;10.30;;
38083;SDS011;23894;51.466;7.444;2023-07-02T08:20:44;20.17;;;9.77;;
38083;SDS011;23894;51.466;7.444;2023-07-02T08:22:46;19.92;;;9.85;;
38083;SDS011;23894;51.466;7.444;2023-07-02T08:24:48;20.15;;;9.88;;
38083;SDS011;23894;51.466;7.444;2023-07-02T08:26:51;21.17;;;10.05;;
38083;SDS011;23894;51.466;7.444;2023-07-02T08:30:53;24.55;;;10.02;;
38083;SDS011;23894;51.466;7.444;2023-07-02T08:32:56;18.13;;;10.55;;
38083;SDS011;23894;51.466;7.444;2023-07-02T08:34:57;20.10;;;9.73;;
38083;SDS011;23894;51.466;7.444;2023-07-02T08:39:01;20.80;;;10.07;;
38083;SDS011;23894;51.466;7.444;2023-07-02T08:41:04;26.10;;;10.63;;
38083;SDS011;23894;51.466;7.444;2023-07-02T08:43:06;19.70;;;10.15;;
38083;SDS011;23894;51.466;7.444;2023-07-02T08:47:09;24.38;;;11.88;;
38083;SDS011;23894;51.466;7.444;2023-07-02T08:49:11;21.70;;;11.63;;
38083;SDS011;23894;51.466;7.444;2023-07-02T08:51:12;20.35;;;10.57;;
38083;SDS011;23894;51.466;7.444;2023-07-02T08:55:15;19.40;;;10.32;;
38083;SDS011;23894;51.466;7.444;2023-07-02T08:57:19;22.92;;;10.82;;
38083;SDS011;23894;51.466;7.444;2023-07-02T08:59:21;18.23;;;9.43;;
38083;SDS011;23894;51.466;7.444;2023-07-02T09:01:24;24.02;;;10.52;;
38083;SDS011;23894;51.466;7.444;2023-07-02T09:03:26;17.85;;;9.20;;
38083;SDS011;23894;51.466;7.444;2023-07-02T09:05:28;20.60;;;9.88;;
38083;SDS011;23894;51.466;7.444;2023-07-02T09:07:31;18.13;;;9.52;;
38083;SDS011;23894;51.466;7.444;2023-07-02T09:09:50;20.92;;;9.60;;
38083;SDS011;23894;51.466;7.444;2023-07-02T09:11:51;17.05;;;9.48;;
38083;SDS011;23894;51.466;7.444;2023-07-02T09:13:54;19.05;;;8.75;;
38083;SDS011;23894;51.466;7.444;2023-07-02T09:16:03;19.02;;;9.23;;
38083;SDS011;23894;51.466;7.444;2023-07-02T09:18:18;18.45;;;9.20;;
38083;SDS011;23894;51.466;7.444;2023-07-02T09:20:21;16.83;;;8.77;;
38083;SDS011;23894;51.466;7.444;2023-07-02T09:22:32;17.02;;;8.65;;
38083;SDS011;23894;51.466;7.444;2023-07-02T09:24:34;17.35;;;7.88;;
38083;SDS011;23894;51.466;7.444;2023-07-02T09:28:39;19.13;;;8.23;;
38083;SDS011;23894;51.466;7.444;2023-07-02T09:30:54;20.48;;;9.07;;
38083;SDS011;23894;51.466;7.444;2023-07-02T09:33:05;17.63;;;7.97;;
38083;SDS011;23894;51.466;7.444;2023-07-02T09:35:10;17.73;;;8.77;;
38083;SDS011;23894;51.466;7.444;2023-07-02T09:37:13;16.20;;;7.72;;
38083;SDS011;23894;51.466;7.444;2023-07-02T09:39:20;13.80;;;7.53;;
38083;SDS011;23894;51.466;7.444;2023-07-02T09:41:25;18.98;;;8.68;;
38083;SDS011;23894;51.466;7.444;2023-07-02T09:43:28;16.52;;;6.88;;
38083;SDS011;23894;51.466;7.444;2023-07-02T09:45:35;14.27;;;7.57;;
38083;SDS011;23894;51.466;7.444;2023-07-02T09:47:39;14.65;;;7.72;;
38083;SDS011;23894;51.466;7.444;2023-07-02T09:50:03;12.95;;;7.30;;
38083;SDS011;23894;51.466;7.444;2023-07-02T09:52:09;13.00;;;7.22;;
38083;SDS011;23894;51.466;7.444;2023-07-02T09:54:13;15.43;;;8.20;;
38083;SDS011;23894;51.466;7.444;2023-07-02T09:56:15;19.85;;;8.35;;
38083;SDS011;23894;51.466;7.444;2023-07-02T09:58:19;17.83;;;8.43;;
38083;SDS011;23894;51.466;7.444;2023-07-02T10:00:23;16.63;;;8.23;;
38083;SDS011;23894;51.466;7.444;2023-07-02T10:02:26;19.13;;;8.27;;
38083;SDS011;23894;51.466;7.444;2023-07-02T10:04:38;19.30;;;9.32;;
38083;SDS011;23894;51.466;7.444;2023-07-02T10:06:49;17.58;;;7.90;;
38083;SDS011;23894;51.466;7.444;2023-07-02T10:08:54;22.30;;;9.15;;
38083;SDS011;23894;51.466;7.444;2023-07-02T10:11:09;18.15;;;8.10;;
38083;SDS011;23894;51.466;7.444;2023-07-02T10:13:14;16.95;;;8.88;;
38083;SDS011;23894;51.466;7.444;2023-07-02T10:15:27;20.50;;;8.70;;
38083;SDS011;23894;51.466;7.444;2023-07-02T10:17:30;15.70;;;8.18;;
38083;SDS011;23894;51.466;7.444;2023-07-02T10:19:34;16.25;;;7.85;;
38083;SDS011;23894;51.466;7.444;2023-07-02T10:21:37;17.95;;;8.63;;
38083;SDS011;23894;51.466;7.444;2023-07-02T10:23:38;17.00;;;8.18;;
38083;SDS011;23894;51.466;7.444;2023-07-02T10:25:41;16.02;;;7.97;;
38083;SDS011;23894;51.466;7.444;2023-07-02T10:27:42;16.80;;;8.38;;
38083;SDS011;23894;51.466;7.444;2023-07-02T10:29:51;14.90;;;8.40;;
38083;SDS011;23894;51.466;7.444;2023-07-02T10:31:53;17.80;;;9.10;;
38083;SDS011;23894;51.466;7.444;2023-07-02T10:33:54;21.25;;;9.57;;
38083;SDS011;23894;51.466;7.444;2023-07-02T10:35:58;19.05;;;9.48;;
38083;SDS011;23894;51.466;7.444;2023-07-02T10:38:01;16.33;;;8.68;;
38083;SDS011;23894;51.466;7.444;2023-07-02T10:40:06;14.85;;;8.25;;
38083;SDS011;23894;51.466;7.444;2023-07-02T10:42:12;17.65;;;8.38;;
38083;SDS011;23894;51.466;7.444;2023-07-02T10:44:15;17.17;;;8.68;;
38083;SDS011;23894;51.466;7.444;2023-07-02T10:46:20;15.35;;;8.52;;
38083;SDS011;23894;51.466;7.444;2023-07-02T10:48:23;14.70;;;8.60;;
38083;SDS011;23894;51.466;7.444;2023-07-02T10:50:26;16.45;;;8.52;;
38083;SDS011;23894;51.466;7.444;2023-07-02T10:52:37;15.63;;;8.57;;
38083;SDS011;23894;51.466;7.444;2023-07-02T10:56:42;14.02;;;7.65;;
38083;SDS011;23894;51.466;7.444;2023-07-02T10:59:08;17.70;;;7.97;;
38083;SDS011;23894;51.466;7.444;2023-07-02T11:01:08;16.55;;;8.00;;
38083;SDS011;23894;51.466;7.444;2023-07-02T11:05:19;14.77;;;7.57;;
38083;SDS011;23894;51.466;7.444;2023-07-02T11:07:26;14.07;;;7.25;;
38083;SDS011;23894;51.466;7.444;2023-07-02T11:09:28;16.13;;;7.78;;
38083;SDS011;23894;51.466;7.444;2023-07-02T11:11:30;13.30;;;7.10;;
38083;SDS011;23894;51.466;7.444;2023-07-02T11:13:31;14.40;;;7.38;;
38083;SDS011;23894;51.466;7.444;2023-07-02T11:15:35;16.35;;;7.95;;
38083;SDS011;23894;51.466;7.444;2023-07-02T11:17:40;16.77;;;8.65;;
38083;SDS011;23894;51.466;7.444;2023-07-02T11:19:49;17.08;;;8.10;;
38083;SDS011;23894;51.466;7.444;2023-07-02T11:21:54;17.67;;;7.82;;
38083;SDS011;23894;51.466;7.444;2023-07-02T11:24:05;16.27;;;8.50;;
38083;SDS011;23894;51.466;7.444;2023-07-02T11:26:17;16.25;;;8.10;;
38083;SDS011;23894;51.466;7.444;2023-07-02T11:28:20;14.90;;;9.20;;
38083;SDS011;23894;51.466;7.444;2023-07-02T11:30:23;18.30;;;9.00;;
38083;SDS011;23894;51.466;7.444;2023-07-02T11:32:24;18.17;;;9.35;;
38083;SDS011;23894;51.466;7.444;2023-07-02T11:34:26;27.55;;;10.10;;
38083;SDS011;23894;51.466;7.444;2023-07-02T11:36:30;19.92;;;9.50;;
38083;SDS011;23894;51.466;7.444;2023-07-02T11:38:41;19.05;;;8.73;;
38083;SDS011;23894;51.466;7.444;2023-07-02T11:40:45;19.35;;;8.50;;
38083;SDS011;23894;51.466;7.444;2023-07-02T11:42:49;17.38;;;8.88;;
38083;SDS011;23894;51.466;7.444;2023-07-02T11:45:02;20.42;;;9.65;;
38083;SDS011;23894;51.466;7.444;2023-07-02T11:47:07;19.45;;;9.48;;
38083;SDS011;23894;51.466;7.444;2023-07-02T11:49:09;16.58;;;8.70;;
38083;SDS011;23894;51.466;7.444;2023-07-02T11:51:11;15.23;;;8.38;;
38083;SDS011;23894;51.466;7.444;2023-07-02T11:53:14;15.63;;;8.10;;
38083;SDS011;23894;51.466;7.444;2023-07-02T11:55:15;15.98;;;9.13;;
38083;SDS011;23894;51.466;7.444;2023-07-02T11:57:16;19.13;;;9.55;;
38083;SDS011;23894;51.466;7.444;2023-07-02T11:59:18;19.40;;;9.55;;
38083;SDS011;23894;51.466;7.444;2023-07-02T12:01:20;13.40;;;6.68;;
38083;SDS011;23894;51.466;7.444;2023-07-02T12:03:24;16.55;;;6.28;;
38083;SDS011;23894;51.466;7.444;2023-07-02T12:05:26;13.23;;;6.40;;
38083;SDS011;23894;51.466;7.444;2023-07-02T12:07:30;12.98;;;6.65;;
38083;SDS011;23894;51.466;7.444;2023-07-02T12:09:33;15.05;;;7.07;;
38083;SDS011;23894;51.466;7.444;2023-07-02T12:11:34;16.02;;;6.38;;
38083;SDS011;23894;51.466;7.444;2023-07-02T12:13:36;14.27;;;6.45;;
38083;SDS011;23894;51.466;7.444;2023-07-02T12:15:39;17.50;;;7.00;;
38083;SDS011;23894;51.466;7.444;2023-07-02T12:17:43;13.57;;;6.35;;
38083;SDS011;23894;51.466;7.444;2023-07-02T12:19:45;15.82;;;7.38;;
38083;SDS011;23894;51.466;7.444;2023-07-02T12:21:48;14.02;;;6.22;;
38083;SDS011;23894;51.466;7.444;2023-07-02T12:23:52;15.43;;;5.95;;
38083;SDS011;23894;51.466;7.444;2023-07-02T12:25:54;14.73;;;6.93;;
38083;SDS011;23894;51.466;7.444;2023-07-02T12:27:57;15.25;;;7.25;;
38083;SDS011;23894;51.466;7.444;2023-07-02T12:30:03;13.80;;;6.47;;
38083;SDS011;23894;51.466;7.444;2023-07-02T12:32:05;17.95;;;7.22;;
38083;SDS011;23894;51.466;7.444;2023-07-02T12:34:08;14.00;;;6.90;;
38083;SDS011;23894;51.466;7.444;2023-07-02T12:36:09;15.20;;;6.88;;
38083;SDS011;23894;51.466;7.444;2023-07-02T12:38:11;15.73;;;7.93;;
38083;SDS011;23894;51.466;7.444;2023-07-02T12:40:15;14.05;;;7.22;;
38083;SDS011;23894;51.466;7.444;2023-07-02T12:42:17;14.80;;;6.72;;
38083;SDS011;23894;51.466;7.444;2023-07-02T12:44:19;16.88;;;6.63;;
38083;SDS011;23894;51.466;7.444;2023-07-02T12:46:22;13.93;;;6.95;;
38083;SDS011;23894;51.466;7.444;2023-07-02T12:48:26;15.82;;;6.53;;
38083;SDS011;23894;51.466;7.444;2023-07-02T12:50:28;15.02;;;6.43;;
38083;SDS011;23894;51.466;7.444;2023-07-02T12:52:30;14.25;;;6.05;;
38083;SDS011;23894;51.466;7.444;2023-07-02T12:54:34;14.05;;;6.47;;
38083;SDS011;23894;51.466;7.444;2023-07-02T12:56:35;13.90;;;6.18;;
38083;SDS011;23894;51.466;7.444;2023-07-02T12:58:36;16.90;;;6.85;;
38083;SDS011;23894;51.466;7.444;2023-07-02T13:00:39;12.80;;;6.38;;
38083;SDS011;23894;51.466;7.444;2023-07-02T13:02:40;14.00;;;6.10;;
38083;SDS011;23894;51.466;7.444;2023-07-02T13:04:43;12.00;;;6.10;;
38083;SDS011;23894;51.466;7.444;2023-07-02T13:06:46;15.25;;;5.97;;
38083;SDS011;23894;51.466;7.444;2023-07-02T13:08:48;12.93;;;6.07;;
38083;SDS011;23894;51.466;7.444;2023-07-02T13:10:52;11.70;;;6.22;;